sensor_id;sensor_type;location;lat;lon;timestamp;temperature;humidity
12885;DHT22;6510;51.362;7.370;2023-02-15T00:01:49;4.70;99.90
12885;DHT22;6510;51.362;7.370;2023-02-15T00:04:16;4.60;99.90
12885;DHT22;6510;51.362;7.370;2023-02-15T00:06:43;4.60;99.90
12885;DHT22;6510;51.362;7.370;2023-02-15T00:09:10;4.60;99.90
12885;DHT22;6510;51.362;7.370;2023-02-15T00:11:35;4.50;99.90
12885;DHT22;6510;51.362;7.370;2023-02-15T00:14:19;4.30;99.90
12885;DHT22;6510;51.362;7.370;2023-02-15T00:16:45;4.10;99.90
12885;DHT22;6510;51.362;7.370;2023-02-15T00:19:12;4.10;99.90
12885;DHT22;6510;51.362;7.370;2023-02-15T00:21:39;4.10;99.90
12885;DHT22;6510;51.362;7.370;2023-02-15T00:24:07;4.30;99.90
12885;DHT22;6510;51.362;7.370;2023-02-15T00:26:34;4.30;99.90
12885;DHT22;6510;51.362;7.370;2023-02-15T00:29:00;4.20;99.90
12885;DHT22;6510;51.362;7.370;2023-02-15T00:31:30;4.20;99.90
12885;DHT22;6510;51.362;7.370;2023-02-15T00:34:01;4.30;99.90
12885;DHT22;6510;51.362;7.370;2023-02-15T00:36:27;4.30;99.90
12885;DHT22;6510;51.362;7.370;2023-02-15T00:38:53;4.40;99.90
12885;DHT22;6510;51.362;7.370;2023-02-15T00:41:18;4.40;99.90
12885;DHT22;6510;51.362;7.370;2023-02-15T00:43:44;4.30;99.90
12885;DHT22;6510;51.362;7.370;2023-02-15T00:46:10;4.30;99.90
12885;DHT22;6510;51.362;7.370;2023-02-15T00:48:35;4.30;99.90
12885;DHT22;6510;51.362;7.370;2023-02-15T00:51:01;4.30;99.90
12885;DHT22;6510;51.362;7.370;2023-02-15T00:53:27;4.40;99.90
12885;DHT22;6510;51.362;7.370;2023-02-15T00:55:53;4.40;99.90
12885;DHT22;6510;51.362;7.370;2023-02-15T00:58:19;4.30;99.90
12885;DHT22;6510;51.362;7.370;2023-02-15T01:00:46;4.30;99.90
12885;DHT22;6510;51.362;7.370;2023-02-15T01:03:13;4.20;99.90
12885;DHT22;6510;51.362;7.370;2023-02-15T01:05:40;4.30;99.90
12885;DHT22;6510;51.362;7.370;2023-02-15T01:08:06;4.30;99.90
12885;DHT22;6510;51.362;7.370;2023-02-15T01:10:33;4.20;99.90
12885;DHT22;6510;51.362;7.370;2023-02-15T01:12:58;4.30;99.90
12885;DHT22;6510;51.362;7.370;2023-02-15T01:15:24;4.30;99.90
12885;DHT22;6510;51.362;7.370;2023-02-15T01:17:50;4.20;99.90
12885;DHT22;6510;51.362;7.370;2023-02-15T01:20:25;4.10;99.90
12885;DHT22;6510;51.362;7.370;2023-02-15T01:22:52;3.90;99.90
12885;DHT22;6510;51.362;7.370;2023-02-15T01:25:19;3.80;99.90
12885;DHT22;6510;51.362;7.370;2023-02-15T01:27:45;3.80;99.90
12885;DHT22;6510;51.362;7.370;2023-02-15T01:30:12;3.70;99.90
12885;DHT22;6510;51.362;7.370;2023-02-15T01:32:38;3.70;99.90
12885;DHT22;6510;51.362;7.370;2023-02-15T01:35:04;3.70;99.90
12885;DHT22;6510;51.362;7.370;2023-02-15T01:37:31;3.50;99.90
12885;DHT22;6510;51.362;7.370;2023-02-15T01:39:57;3.40;99.90
12885;DHT22;6510;51.362;7.370;2023-02-15T01:42:24;3.30;99.90
12885;DHT22;6510;51.362;7.370;2023-02-15T01:44:59;3.50;99.90
12885;DHT22;6510;51.362;7.370;2023-02-15T01:50:10;3.50;99.90
12885;DHT22;6510;51.362;7.370;2023-02-15T01:52:44;3.30;99.90
12885;DHT22;6510;51.362;7.370;2023-02-15T01:55:12;3.30;99.90
12885;DHT22;6510;51.362;7.370;2023-02-15T01:57:39;3.20;99.90
12885;DHT22;6510;51.362;7.370;2023-02-15T02:00:06;3.20;99.90
12885;DHT22;6510;51.362;7.370;2023-02-15T02:02:32;3.20;99.90
12885;DHT22;6510;51.362;7.370;2023-02-15T02:05:00;3.20;99.90
12885;DHT22;6510;51.362;7.370;2023-02-15T02:07:35;3.10;99.90
12885;DHT22;6510;51.362;7.370;2023-02-15T02:10:04;3.10;99.90
12885;DHT22;6510;51.362;7.370;2023-02-15T02:12:31;3.00;99.90
12885;DHT22;6510;51.362;7.370;2023-02-15T02:14:58;3.10;99.90
12885;DHT22;6510;51.362;7.370;2023-02-15T02:23:20;3.10;99.90
12885;DHT22;6510;51.362;7.370;2023-02-15T02:41:56;3.00;99.90
12885;DHT22;6510;51.362;7.370;2023-02-15T02:44:44;2.90;99.90
12885;DHT22;6510;51.362;7.370;2023-02-15T02:49:52;2.90;99.90
12885;DHT22;6510;51.362;7.370;2023-02-15T02:52:48;3.00;99.90
12885;DHT22;6510;51.362;7.370;2023-02-15T02:55:22;3.10;99.90
12885;DHT22;6510;51.362;7.370;2023-02-15T03:00:19;3.10;99.90
12885;DHT22;6510;51.362;7.370;2023-02-15T03:02:49;3.20;99.90
12885;DHT22;6510;51.362;7.370;2023-02-15T03:05:21;3.10;99.90
12885;DHT22;6510;51.362;7.370;2023-02-15T03:07:49;3.20;99.90
12885;DHT22;6510;51.362;7.370;2023-02-15T03:10:18;3.10;99.90
12885;DHT22;6510;51.362;7.370;2023-02-15T03:12:46;3.00;99.90
12885;DHT22;6510;51.362;7.370;2023-02-15T03:15:22;3.10;99.90
12885;DHT22;6510;51.362;7.370;2023-02-15T03:17:55;3.10;99.90
12885;DHT22;6510;51.362;7.370;2023-02-15T03:20:32;3.20;99.90
12885;DHT22;6510;51.362;7.370;2023-02-15T03:23:09;3.20;99.90
12885;DHT22;6510;51.362;7.370;2023-02-15T03:25:45;3.10;99.90
12885;DHT22;6510;51.362;7.370;2023-02-15T03:28:20;3.00;99.90
12885;DHT22;6510;51.362;7.370;2023-02-15T03:30:52;3.00;99.90
12885;DHT22;6510;51.362;7.370;2023-02-15T03:33:20;2.90;99.90
12885;DHT22;6510;51.362;7.370;2023-02-15T03:35:54;2.90;99.90
12885;DHT22;6510;51.362;7.370;2023-02-15T03:38:30;2.90;99.90
12885;DHT22;6510;51.362;7.370;2023-02-15T03:40:58;2.90;99.90
12885;DHT22;6510;51.362;7.370;2023-02-15T03:43:49;2.80;99.90
12885;DHT22;6510;51.362;7.370;2023-02-15T03:46:23;2.80;99.90
12885;DHT22;6510;51.362;7.370;2023-02-15T03:48:56;2.70;99.90
12885;DHT22;6510;51.362;7.370;2023-02-15T03:51:27;2.60;99.90
12885;DHT22;6510;51.362;7.370;2023-02-15T03:54:31;2.60;99.90
12885;DHT22;6510;51.362;7.370;2023-02-15T03:57:28;2.80;99.90
12885;DHT22;6510;51.362;7.370;2023-02-15T04:05:35;2.60;99.90
12885;DHT22;6510;51.362;7.370;2023-02-15T04:08:02;2.70;99.90
12885;DHT22;6510;51.362;7.370;2023-02-15T04:10:28;2.60;99.90
12885;DHT22;6510;51.362;7.370;2023-02-15T04:13:12;2.70;99.90
12885;DHT22;6510;51.362;7.370;2023-02-15T04:15:38;2.80;99.90
12885;DHT22;6510;51.362;7.370;2023-02-15T04:18:22;2.80;99.90
12885;DHT22;6510;51.362;7.370;2023-02-15T04:21:06;2.90;99.90
12885;DHT22;6510;51.362;7.370;2023-02-15T04:23:50;2.90;99.90
12885;DHT22;6510;51.362;7.370;2023-02-15T04:26:34;2.90;99.90
12885;DHT22;6510;51.362;7.370;2023-02-15T04:29:00;2.90;99.90
12885;DHT22;6510;51.362;7.370;2023-02-15T04:31:26;2.90;99.90
12885;DHT22;6510;51.362;7.370;2023-02-15T04:33:51;3.10;99.90
12885;DHT22;6510;51.362;7.370;2023-02-15T04:36:17;3.00;99.90
12885;DHT22;6510;51.362;7.370;2023-02-15T04:38:43;3.00;99.90
12885;DHT22;6510;51.362;7.370;2023-02-15T04:41:08;3.00;99.90
12885;DHT22;6510;51.362;7.370;2023-02-15T04:43:35;3.00;99.90
12885;DHT22;6510;51.362;7.370;2023-02-15T04:46:01;2.90;99.90
12885;DHT22;6510;51.362;7.370;2023-02-15T04:48:27;2.80;99.90
12885;DHT22;6510;51.362;7.370;2023-02-15T04:50:52;2.80;99.90
12885;DHT22;6510;51.362;7.370;2023-02-15T04:53:18;2.70;99.90
12885;DHT22;6510;51.362;7.370;2023-02-15T04:55:44;2.60;99.90
12885;DHT22;6510;51.362;7.370;2023-02-15T04:58:09;2.60;99.90
12885;DHT22;6510;51.362;7.370;2023-02-15T05:00:35;2.60;99.90
12885;DHT22;6510;51.362;7.370;2023-02-15T05:03:01;2.60;99.90
12885;DHT22;6510;51.362;7.370;2023-02-15T05:05:28;2.70;99.90
12885;DHT22;6510;51.362;7.370;2023-02-15T05:07:53;2.60;99.90
12885;DHT22;6510;51.362;7.370;2023-02-15T05:10:19;2.80;99.90
12885;DHT22;6510;51.362;7.370;2023-02-15T05:12:45;2.90;99.90
12885;DHT22;6510;51.362;7.370;2023-02-15T05:15:10;2.90;99.90
12885;DHT22;6510;51.362;7.370;2023-02-15T05:17:36;2.80;99.90
12885;DHT22;6510;51.362;7.370;2023-02-15T05:20:03;2.70;99.90
12885;DHT22;6510;51.362;7.370;2023-02-15T05:22:28;2.70;99.90
12885;DHT22;6510;51.362;7.370;2023-02-15T05:24:54;2.70;99.90
12885;DHT22;6510;51.362;7.370;2023-02-15T05:27:38;2.70;99.90
12885;DHT22;6510;51.362;7.370;2023-02-15T05:30:22;2.60;99.90
12885;DHT22;6510;51.362;7.370;2023-02-15T05:32:48;2.70;99.90
12885;DHT22;6510;51.362;7.370;2023-02-15T05:35:16;2.60;99.90
12885;DHT22;6510;51.362;7.370;2023-02-15T05:37:42;2.80;99.90
12885;DHT22;6510;51.362;7.370;2023-02-15T05:40:11;2.80;99.90
12885;DHT22;6510;51.362;7.370;2023-02-15T05:42:36;2.70;99.90
12885;DHT22;6510;51.362;7.370;2023-02-15T05:45:02;2.70;99.90
12885;DHT22;6510;51.362;7.370;2023-02-15T05:47:29;2.70;99.90
12885;DHT22;6510;51.362;7.370;2023-02-15T05:49:54;2.60;99.90
12885;DHT22;6510;51.362;7.370;2023-02-15T05:52:20;2.50;99.90
12885;DHT22;6510;51.362;7.370;2023-02-15T05:54:46;2.60;99.90
12885;DHT22;6510;51.362;7.370;2023-02-15T05:57:11;2.70;99.90
12885;DHT22;6510;51.362;7.370;2023-02-15T05:59:37;2.70;99.90
12885;DHT22;6510;51.362;7.370;2023-02-15T06:02:03;2.70;99.90
12885;DHT22;6510;51.362;7.370;2023-02-15T06:04:28;2.70;99.90
12885;DHT22;6510;51.362;7.370;2023-02-15T06:06:54;2.80;99.90
12885;DHT22;6510;51.362;7.370;2023-02-15T06:09:20;2.90;99.90
12885;DHT22;6510;51.362;7.370;2023-02-15T06:11:46;2.90;99.90
12885;DHT22;6510;51.362;7.370;2023-02-15T06:14:11;2.80;99.90
12885;DHT22;6510;51.362;7.370;2023-02-15T06:16:37;2.90;99.90
12885;DHT22;6510;51.362;7.370;2023-02-15T06:19:03;2.90;99.90
12885;DHT22;6510;51.362;7.370;2023-02-15T06:21:30;2.90;99.90
12885;DHT22;6510;51.362;7.370;2023-02-15T06:23:56;2.90;99.90
12885;DHT22;6510;51.362;7.370;2023-02-15T06:26:22;2.90;99.90
12885;DHT22;6510;51.362;7.370;2023-02-15T06:28:47;2.90;99.90
12885;DHT22;6510;51.362;7.370;2023-02-15T06:31:13;2.80;99.90
12885;DHT22;6510;51.362;7.370;2023-02-15T06:33:39;2.90;99.90
12885;DHT22;6510;51.362;7.370;2023-02-15T06:36:05;2.90;99.90
12885;DHT22;6510;51.362;7.370;2023-02-15T06:38:31;2.90;99.90
12885;DHT22;6510;51.362;7.370;2023-02-15T06:40:56;2.90;99.90
12885;DHT22;6510;51.362;7.370;2023-02-15T06:43:22;2.90;99.90
12885;DHT22;6510;51.362;7.370;2023-02-15T06:45:48;3.00;99.90
12885;DHT22;6510;51.362;7.370;2023-02-15T06:48:13;3.00;99.90
12885;DHT22;6510;51.362;7.370;2023-02-15T06:50:39;2.90;99.90
12885;DHT22;6510;51.362;7.370;2023-02-15T06:53:05;3.00;99.90
12885;DHT22;6510;51.362;7.370;2023-02-15T06:55:30;3.00;99.90
12885;DHT22;6510;51.362;7.370;2023-02-15T06:57:56;2.90;99.90
12885;DHT22;6510;51.362;7.370;2023-02-15T07:00:22;2.90;99.90
12885;DHT22;6510;51.362;7.370;2023-02-15T07:02:53;3.00;99.90
12885;DHT22;6510;51.362;7.370;2023-02-15T07:05:21;3.00;99.90
12885;DHT22;6510;51.362;7.370;2023-02-15T07:07:47;3.00;99.90
12885;DHT22;6510;51.362;7.370;2023-02-15T07:10:12;3.10;99.90
12885;DHT22;6510;51.362;7.370;2023-02-15T07:12:38;3.10;99.90
12885;DHT22;6510;51.362;7.370;2023-02-15T07:15:13;3.10;99.90
12885;DHT22;6510;51.362;7.370;2023-02-15T07:17:40;3.10;99.90
12885;DHT22;6510;51.362;7.370;2023-02-15T07:20:14;3.30;99.90
12885;DHT22;6510;51.362;7.370;2023-02-15T07:22:40;4.20;99.90
12885;DHT22;6510;51.362;7.370;2023-02-15T07:25:07;5.10;99.90
12885;DHT22;6510;51.362;7.370;2023-02-15T07:27:33;5.30;99.90
12885;DHT22;6510;51.362;7.370;2023-02-15T07:30:00;5.90;99.90
12885;DHT22;6510;51.362;7.370;2023-02-15T07:32:31;6.00;99.90
12885;DHT22;6510;51.362;7.370;2023-02-15T07:34:57;6.70;99.90
12885;DHT22;6510;51.362;7.370;2023-02-15T07:37:23;6.70;99.90
12885;DHT22;6510;51.362;7.370;2023-02-15T07:39:49;7.00;99.90
12885;DHT22;6510;51.362;7.370;2023-02-15T07:42:15;7.30;99.90
12885;DHT22;6510;51.362;7.370;2023-02-15T07:44:41;7.60;99.90
12885;DHT22;6510;51.362;7.370;2023-02-15T07:47:06;7.50;99.90
12885;DHT22;6510;51.362;7.370;2023-02-15T07:49:32;7.60;99.90
12885;DHT22;6510;51.362;7.370;2023-02-15T07:52:00;7.70;99.90
12885;DHT22;6510;51.362;7.370;2023-02-15T07:54:26;7.70;99.90
12885;DHT22;6510;51.362;7.370;2023-02-15T07:56:52;8.30;99.90
12885;DHT22;6510;51.362;7.370;2023-02-15T07:59:17;8.30;99.90
12885;DHT22;6510;51.362;7.370;2023-02-15T08:01:43;8.20;99.90
12885;DHT22;6510;51.362;7.370;2023-02-15T08:04:09;8.50;99.90
12885;DHT22;6510;51.362;7.370;2023-02-15T08:06:37;8.70;99.90
12885;DHT22;6510;51.362;7.370;2023-02-15T08:09:07;9.30;99.90
12885;DHT22;6510;51.362;7.370;2023-02-15T08:11:36;9.20;99.90
12885;DHT22;6510;51.362;7.370;2023-02-15T08:16:40;8.70;99.90
12885;DHT22;6510;51.362;7.370;2023-02-15T08:21:46;8.20;99.90
12885;DHT22;6510;51.362;7.370;2023-02-15T08:24:14;8.60;99.90
12885;DHT22;6510;51.362;7.370;2023-02-15T08:26:41;8.90;99.90
12885;DHT22;6510;51.362;7.370;2023-02-15T08:29:07;8.40;99.90
12885;DHT22;6510;51.362;7.370;2023-02-15T08:31:34;8.70;99.90
12885;DHT22;6510;51.362;7.370;2023-02-15T08:34:00;9.00;99.90
12885;DHT22;6510;51.362;7.370;2023-02-15T08:36:28;9.40;99.90
12885;DHT22;6510;51.362;7.370;2023-02-15T08:38:57;9.80;99.90
12885;DHT22;6510;51.362;7.370;2023-02-15T08:41:26;10.10;99.90
12885;DHT22;6510;51.362;7.370;2023-02-15T08:44:00;10.50;99.90
12885;DHT22;6510;51.362;7.370;2023-02-15T08:46:28;10.70;99.90
12885;DHT22;6510;51.362;7.370;2023-02-15T08:48:54;10.90;99.90
12885;DHT22;6510;51.362;7.370;2023-02-15T08:51:23;11.10;99.90
12885;DHT22;6510;51.362;7.370;2023-02-15T08:53:52;11.60;99.90
12885;DHT22;6510;51.362;7.370;2023-02-15T08:56:23;11.10;99.90
12885;DHT22;6510;51.362;7.370;2023-02-15T08:58:49;11.40;99.90
12885;DHT22;6510;51.362;7.370;2023-02-15T09:01:22;11.30;99.90
12885;DHT22;6510;51.362;7.370;2023-02-15T09:03:49;10.40;99.90
12885;DHT22;6510;51.362;7.370;2023-02-15T09:06:17;10.80;99.90
12885;DHT22;6510;51.362;7.370;2023-02-15T09:08:43;12.00;99.90
12885;DHT22;6510;51.362;7.370;2023-02-15T09:11:10;12.00;99.90
12885;DHT22;6510;51.362;7.370;2023-02-15T09:13:36;11.40;99.90
12885;DHT22;6510;51.362;7.370;2023-02-15T09:16:04;11.40;99.90
12885;DHT22;6510;51.362;7.370;2023-02-15T09:18:33;11.70;99.90
12885;DHT22;6510;51.362;7.370;2023-02-15T09:21:15;11.90;99.90
12885;DHT22;6510;51.362;7.370;2023-02-15T09:23:41;12.20;99.90
12885;DHT22;6510;51.362;7.370;2023-02-15T09:26:11;12.10;99.90
12885;DHT22;6510;51.362;7.370;2023-02-15T09:28:37;11.50;99.90
12885;DHT22;6510;51.362;7.370;2023-02-15T09:31:11;11.60;99.90
12885;DHT22;6510;51.362;7.370;2023-02-15T09:33:38;11.10;99.90
12885;DHT22;6510;51.362;7.370;2023-02-15T09:36:12;11.20;99.90
12885;DHT22;6510;51.362;7.370;2023-02-15T09:38:38;11.10;99.90
12885;DHT22;6510;51.362;7.370;2023-02-15T09:44:25;11.50;99.90
12885;DHT22;6510;51.362;7.370;2023-02-15T09:49:40;12.50;99.90
12885;DHT22;6510;51.362;7.370;2023-02-15T10:11:50;14.00;99.90
12885;DHT22;6510;51.362;7.370;2023-02-15T10:25:28;14.30;99.90
12885;DHT22;6510;51.362;7.370;2023-02-15T10:28:05;13.20;99.90
12885;DHT22;6510;51.362;7.370;2023-02-15T10:36:36;15.20;99.90
12885;DHT22;6510;51.362;7.370;2023-02-15T10:47:25;15.70;99.90
12885;DHT22;6510;51.362;7.370;2023-02-15T10:56:03;17.30;99.90
12885;DHT22;6510;51.362;7.370;2023-02-15T11:04:31;15.70;99.90
12885;DHT22;6510;51.362;7.370;2023-02-15T11:07:56;16.60;99.90
12885;DHT22;6510;51.362;7.370;2023-02-15T11:10:01;16.10;99.90
12885;DHT22;6510;51.362;7.370;2023-02-15T11:12:31;16.10;99.90
12885;DHT22;6510;51.362;7.370;2023-02-15T11:15:26;16.70;99.90
12885;DHT22;6510;51.362;7.370;2023-02-15T11:18:06;18.10;99.90
12885;DHT22;6510;51.362;7.370;2023-02-15T11:20:44;16.00;99.90
12885;DHT22;6510;51.362;7.370;2023-02-15T11:23:16;15.90;99.90
12885;DHT22;6510;51.362;7.370;2023-02-15T11:25:46;16.70;99.90
12885;DHT22;6510;51.362;7.370;2023-02-15T11:28:24;16.70;99.90
12885;DHT22;6510;51.362;7.370;2023-02-15T11:30:54;18.30;99.90
12885;DHT22;6510;51.362;7.370;2023-02-15T11:33:28;18.90;99.90
12885;DHT22;6510;51.362;7.370;2023-02-15T11:36:44;17.70;99.90
12885;DHT22;6510;51.362;7.370;2023-02-15T11:38:47;18.00;99.90
12885;DHT22;6510;51.362;7.370;2023-02-15T11:41:18;16.70;99.90
12885;DHT22;6510;51.362;7.370;2023-02-15T11:46:17;19.00;99.90
12885;DHT22;6510;51.362;7.370;2023-02-15T11:48:44;18.60;99.90
12885;DHT22;6510;51.362;7.370;2023-02-15T11:51:14;19.00;99.90
12885;DHT22;6510;51.362;7.370;2023-02-15T11:53:41;19.00;99.90
12885;DHT22;6510;51.362;7.370;2023-02-15T11:56:20;17.50;99.90
12885;DHT22;6510;51.362;7.370;2023-02-15T11:59:08;18.50;99.90
12885;DHT22;6510;51.362;7.370;2023-02-15T12:01:42;19.20;99.90
12885;DHT22;6510;51.362;7.370;2023-02-15T12:07:24;18.10;99.90
12885;DHT22;6510;51.362;7.370;2023-02-15T12:12:43;17.20;99.90
12885;DHT22;6510;51.362;7.370;2023-02-15T12:15:11;17.20;99.90
12885;DHT22;6510;51.362;7.370;2023-02-15T12:17:42;17.30;99.90
12885;DHT22;6510;51.362;7.370;2023-02-15T12:22:45;17.00;99.90
12885;DHT22;6510;51.362;7.370;2023-02-15T12:25:24;16.30;99.90
12885;DHT22;6510;51.362;7.370;2023-02-15T12:27:51;17.10;99.90
12885;DHT22;6510;51.362;7.370;2023-02-15T12:33:42;18.40;99.90
12885;DHT22;6510;51.362;7.370;2023-02-15T12:35:44;19.30;99.90
12885;DHT22;6510;51.362;7.370;2023-02-15T12:40:35;17.90;99.90
12885;DHT22;6510;51.362;7.370;2023-02-15T12:43:02;18.10;99.90
12885;DHT22;6510;51.362;7.370;2023-02-15T12:45:35;18.20;99.90
12885;DHT22;6510;51.362;7.370;2023-02-15T12:48:15;17.70;99.90
12885;DHT22;6510;51.362;7.370;2023-02-15T12:50:49;16.10;99.90
12885;DHT22;6510;51.362;7.370;2023-02-15T12:53:22;17.10;99.90
12885;DHT22;6510;51.362;7.370;2023-02-15T12:56:04;17.40;99.90
12885;DHT22;6510;51.362;7.370;2023-02-15T12:58:34;17.20;99.90
12885;DHT22;6510;51.362;7.370;2023-02-15T13:01:18;17.50;99.90
12885;DHT22;6510;51.362;7.370;2023-02-15T13:06:21;18.10;99.90
12885;DHT22;6510;51.362;7.370;2023-02-15T13:08:48;18.40;99.90
12885;DHT22;6510;51.362;7.370;2023-02-15T13:11:26;18.90;99.90
12885;DHT22;6510;51.362;7.370;2023-02-15T13:14:00;18.10;99.90
12885;DHT22;6510;51.362;7.370;2023-02-15T13:16:36;19.20;99.90
12885;DHT22;6510;51.362;7.370;2023-02-15T13:19:09;18.80;99.90
12885;DHT22;6510;51.362;7.370;2023-02-15T13:21:39;19.00;99.90
12885;DHT22;6510;51.362;7.370;2023-02-15T13:24:13;17.90;99.90
12885;DHT22;6510;51.362;7.370;2023-02-15T13:26:41;18.70;99.90
12885;DHT22;6510;51.362;7.370;2023-02-15T13:29:31;17.90;99.90
12885;DHT22;6510;51.362;7.370;2023-02-15T13:32:05;17.30;99.90
12885;DHT22;6510;51.362;7.370;2023-02-15T13:34:34;17.70;99.90
12885;DHT22;6510;51.362;7.370;2023-02-15T13:39:45;17.80;99.90
12885;DHT22;6510;51.362;7.370;2023-02-15T13:56:35;18.00;99.90
12885;DHT22;6510;51.362;7.370;2023-02-15T14:02:18;19.10;99.90
12885;DHT22;6510;51.362;7.370;2023-02-15T14:05:13;18.80;99.90
12885;DHT22;6510;51.362;7.370;2023-02-15T14:22:06;18.20;99.90
12885;DHT22;6510;51.362;7.370;2023-02-15T14:30:36;18.30;99.90
12885;DHT22;6510;51.362;7.370;2023-02-15T14:33:29;18.30;99.90
12885;DHT22;6510;51.362;7.370;2023-02-15T14:35:56;18.50;99.90
12885;DHT22;6510;51.362;7.370;2023-02-15T14:38:50;18.00;99.90
12885;DHT22;6510;51.362;7.370;2023-02-15T14:44:15;18.30;99.90
12885;DHT22;6510;51.362;7.370;2023-02-15T14:47:02;17.60;99.90
12885;DHT22;6510;51.362;7.370;2023-02-15T14:49:36;17.60;99.90
12885;DHT22;6510;51.362;7.370;2023-02-15T14:52:09;16.80;99.90
12885;DHT22;6510;51.362;7.370;2023-02-15T15:04:37;14.80;99.90
12885;DHT22;6510;51.362;7.370;2023-02-15T15:07:23;14.60;99.90
12885;DHT22;6510;51.362;7.370;2023-02-15T15:10:04;14.40;99.90
12885;DHT22;6510;51.362;7.370;2023-02-15T15:13:33;14.30;99.90
12885;DHT22;6510;51.362;7.370;2023-02-15T15:18:07;13.70;99.90
12885;DHT22;6510;51.362;7.370;2023-02-15T15:20:40;13.50;99.90
12885;DHT22;6510;51.362;7.370;2023-02-15T15:25:55;13.50;99.90
12885;DHT22;6510;51.362;7.370;2023-02-15T15:44:53;12.50;99.90
12885;DHT22;6510;51.362;7.370;2023-02-15T15:50:25;12.20;99.90
12885;DHT22;6510;51.362;7.370;2023-02-15T15:52:54;12.20;99.90
12885;DHT22;6510;51.362;7.370;2023-02-15T15:55:25;12.20;99.90
12885;DHT22;6510;51.362;7.370;2023-02-15T15:57:55;12.10;99.90
12885;DHT22;6510;51.362;7.370;2023-02-15T16:00:44;12.00;99.90
12885;DHT22;6510;51.362;7.370;2023-02-15T16:03:21;11.90;99.90
12885;DHT22;6510;51.362;7.370;2023-02-15T16:05:47;11.80;99.90
12885;DHT22;6510;51.362;7.370;2023-02-15T16:08:38;11.70;99.90
12885;DHT22;6510;51.362;7.370;2023-02-15T16:13:42;11.40;99.90
12885;DHT22;6510;51.362;7.370;2023-02-15T16:16:08;11.40;99.90
12885;DHT22;6510;51.362;7.370;2023-02-15T16:18:37;11.30;99.90
12885;DHT22;6510;51.362;7.370;2023-02-15T16:21:04;11.20;99.90
12885;DHT22;6510;51.362;7.370;2023-02-15T16:26:43;11.10;99.90
12885;DHT22;6510;51.362;7.370;2023-02-15T16:29:23;11.00;99.90
12885;DHT22;6510;51.362;7.370;2023-02-15T16:32:06;11.00;99.90
12885;DHT22;6510;51.362;7.370;2023-02-15T16:34:54;10.90;99.90
12885;DHT22;6510;51.362;7.370;2023-02-15T16:37:22;10.70;99.90
12885;DHT22;6510;51.362;7.370;2023-02-15T16:39:49;10.60;99.90
12885;DHT22;6510;51.362;7.370;2023-02-15T16:42:16;10.50;99.90
12885;DHT22;6510;51.362;7.370;2023-02-15T16:44:44;10.50;99.90
12885;DHT22;6510;51.362;7.370;2023-02-15T16:49:50;10.40;99.90
12885;DHT22;6510;51.362;7.370;2023-02-15T16:52:25;10.30;99.90
12885;DHT22;6510;51.362;7.370;2023-02-15T16:54:58;10.20;99.90
12885;DHT22;6510;51.362;7.370;2023-02-15T16:57:27;10.20;99.90
12885;DHT22;6510;51.362;7.370;2023-02-15T16:59:56;10.20;99.90
12885;DHT22;6510;51.362;7.370;2023-02-15T17:02:28;10.00;99.90
12885;DHT22;6510;51.362;7.370;2023-02-15T17:07:40;10.00;99.90
12885;DHT22;6510;51.362;7.370;2023-02-15T17:10:36;9.90;99.90
12885;DHT22;6510;51.362;7.370;2023-02-15T17:13:13;9.90;99.90
12885;DHT22;6510;51.362;7.370;2023-02-15T17:15:46;9.80;99.90
12885;DHT22;6510;51.362;7.370;2023-02-15T17:18:38;9.80;99.90
12885;DHT22;6510;51.362;7.370;2023-02-15T17:21:32;9.80;99.90
12885;DHT22;6510;51.362;7.370;2023-02-15T17:24:05;9.80;99.90
12885;DHT22;6510;51.362;7.370;2023-02-15T17:26:35;9.70;99.90
12885;DHT22;6510;51.362;7.370;2023-02-15T17:29:09;9.70;99.90
12885;DHT22;6510;51.362;7.370;2023-02-15T17:31:36;9.60;99.90
12885;DHT22;6510;51.362;7.370;2023-02-15T17:34:02;9.60;99.90
12885;DHT22;6510;51.362;7.370;2023-02-15T17:36:30;9.50;99.90
12885;DHT22;6510;51.362;7.370;2023-02-15T17:39:18;9.30;99.90
12885;DHT22;6510;51.362;7.370;2023-02-15T17:41:47;9.30;99.90
12885;DHT22;6510;51.362;7.370;2023-02-15T17:44:12;9.30;99.90
12885;DHT22;6510;51.362;7.370;2023-02-15T17:46:41;9.20;99.90
12885;DHT22;6510;51.362;7.370;2023-02-15T17:49:24;9.20;99.90
12885;DHT22;6510;51.362;7.370;2023-02-15T17:51:52;9.10;99.90
12885;DHT22;6510;51.362;7.370;2023-02-15T17:54:17;9.10;99.90
12885;DHT22;6510;51.362;7.370;2023-02-15T17:57:01;9.00;99.90
12885;DHT22;6510;51.362;7.370;2023-02-15T17:59:30;8.90;99.90
12885;DHT22;6510;51.362;7.370;2023-02-15T18:01:56;8.70;99.90
12885;DHT22;6510;51.362;7.370;2023-02-15T18:04:41;8.70;99.90
12885;DHT22;6510;51.362;7.370;2023-02-15T18:07:25;8.60;99.90
12885;DHT22;6510;51.362;7.370;2023-02-15T18:10:15;8.60;99.90
12885;DHT22;6510;51.362;7.370;2023-02-15T18:12:59;8.50;99.90
12885;DHT22;6510;51.362;7.370;2023-02-15T18:15:25;8.60;99.90
12885;DHT22;6510;51.362;7.370;2023-02-15T18:17:51;8.50;99.90
12885;DHT22;6510;51.362;7.370;2023-02-15T18:20:18;8.40;99.90
12885;DHT22;6510;51.362;7.370;2023-02-15T18:22:45;8.30;99.90
12885;DHT22;6510;51.362;7.370;2023-02-15T18:25:15;8.30;99.90
12885;DHT22;6510;51.362;7.370;2023-02-15T18:27:42;8.30;99.90
12885;DHT22;6510;51.362;7.370;2023-02-15T18:30:13;8.20;99.90
12885;DHT22;6510;51.362;7.370;2023-02-15T18:32:40;8.20;99.90
12885;DHT22;6510;51.362;7.370;2023-02-15T18:35:06;8.10;99.90
12885;DHT22;6510;51.362;7.370;2023-02-15T18:37:32;8.10;99.90
12885;DHT22;6510;51.362;7.370;2023-02-15T18:39:59;8.10;99.90
12885;DHT22;6510;51.362;7.370;2023-02-15T18:42:27;8.10;99.90
12885;DHT22;6510;51.362;7.370;2023-02-15T18:45:26;8.00;99.90
12885;DHT22;6510;51.362;7.370;2023-02-15T18:47:53;7.90;99.90
12885;DHT22;6510;51.362;7.370;2023-02-15T18:50:20;7.90;99.90
12885;DHT22;6510;51.362;7.370;2023-02-15T18:52:47;7.80;99.90
12885;DHT22;6510;51.362;7.370;2023-02-15T18:55:20;7.80;99.90
12885;DHT22;6510;51.362;7.370;2023-02-15T18:57:48;7.70;99.90
12885;DHT22;6510;51.362;7.370;2023-02-15T19:00:20;7.60;99.90
12885;DHT22;6510;51.362;7.370;2023-02-15T19:02:47;7.70;99.90
12885;DHT22;6510;51.362;7.370;2023-02-15T19:05:13;7.70;99.90
12885;DHT22;6510;51.362;7.370;2023-02-15T19:07:40;7.80;99.90
12885;DHT22;6510;51.362;7.370;2023-02-15T19:10:16;7.60;99.90
12885;DHT22;6510;51.362;7.370;2023-02-15T19:12:43;7.60;99.90
12885;DHT22;6510;51.362;7.370;2023-02-15T19:15:29;7.60;99.90
12885;DHT22;6510;51.362;7.370;2023-02-15T19:17:55;7.60;99.90
12885;DHT22;6510;51.362;7.370;2023-02-15T19:20:27;7.50;99.90
12885;DHT22;6510;51.362;7.370;2023-02-15T19:22:55;7.50;99.90
12885;DHT22;6510;51.362;7.370;2023-02-15T19:25:24;7.40;99.90
12885;DHT22;6510;51.362;7.370;2023-02-15T19:27:51;7.40;99.90
12885;DHT22;6510;51.362;7.370;2023-02-15T19:30:25;7.40;99.90
12885;DHT22;6510;51.362;7.370;2023-02-15T19:32:52;7.30;99.90
12885;DHT22;6510;51.362;7.370;2023-02-15T19:35:20;7.30;99.90
12885;DHT22;6510;51.362;7.370;2023-02-15T19:37:52;7.30;99.90
12885;DHT22;6510;51.362;7.370;2023-02-15T19:40:24;7.30;99.90
12885;DHT22;6510;51.362;7.370;2023-02-15T19:42:51;7.20;99.90
12885;DHT22;6510;51.362;7.370;2023-02-15T19:45:23;7.20;99.90
12885;DHT22;6510;51.362;7.370;2023-02-15T19:47:50;7.20;99.90
12885;DHT22;6510;51.362;7.370;2023-02-15T19:50:20;7.20;99.90
12885;DHT22;6510;51.362;7.370;2023-02-15T19:52:46;7.10;99.90